sensor_id;sensor_type;location;lat;lon;timestamp;temperature;humidity
66343;DHT22;53144;51.524;5.080;2023-04-02T00:09:02;7.39;95.98
66343;DHT22;53144;51.524;5.080;2023-04-02T00:11:41;7.45;95.80
66343;DHT22;53144;51.524;5.080;2023-04-02T00:14:28;7.41;95.81
66343;DHT22;53144;51.524;5.080;2023-04-02T00:16:57;7.39;95.99
66343;DHT22;53144;51.524;5.080;2023-04-02T00:19:39;7.33;95.29
66343;DHT22;53144;51.524;5.080;2023-04-02T00:22:09;7.31;95.73
66343;DHT22;53144;51.524;5.080;2023-04-02T00:24:37;7.36;95.77
66343;DHT22;53144;51.524;5.080;2023-04-02T00:27:09;7.36;95.11
66343;DHT22;53144;51.524;5.080;2023-04-02T00:30:07;7.29;95.36
66343;DHT22;53144;51.524;5.080;2023-04-02T00:32:35;7.26;95.53
66343;DHT22;53144;51.524;5.080;2023-04-02T00:35:02;7.31;95.52
66343;DHT22;53144;51.524;5.080;2023-04-02T00:37:30;7.22;95.06
66343;DHT22;53144;51.524;5.080;2023-04-02T00:40:23;7.15;95.31
66343;DHT22;53144;51.524;5.080;2023-04-02T00:42:51;7.15;95.64
66343;DHT22;53144;51.524;5.080;2023-04-02T00:45:26;7.16;95.66
66343;DHT22;53144;51.524;5.080;2023-04-02T00:47:54;7.19;95.41
66343;DHT22;53144;51.524;5.080;2023-04-02T00:50:25;7.19;95.20
66343;DHT22;53144;51.524;5.080;2023-04-02T00:52:53;7.11;94.81
66343;DHT22;53144;51.524;5.080;2023-04-02T00:55:21;7.14;95.57
66343;DHT22;53144;51.524;5.080;2023-04-02T00:57:49;7.08;94.71
66343;DHT22;53144;51.524;5.080;2023-04-02T01:00:30;7.01;94.93
66343;DHT22;53144;51.524;5.080;2023-04-02T01:03:33;6.98;94.96
66343;DHT22;53144;51.524;5.080;2023-04-02T01:06:12;6.95;95.08
66343;DHT22;53144;51.524;5.080;2023-04-02T01:14:08;6.95;94.99
66343;DHT22;53144;51.524;5.080;2023-04-02T01:16:50;6.94;94.48
66343;DHT22;53144;51.524;5.080;2023-04-02T01:22:22;7.00;94.45
66343;DHT22;53144;51.524;5.080;2023-04-02T01:24:56;6.94;94.73
66343;DHT22;53144;51.524;5.080;2023-04-02T01:27:37;7.01;94.50
66343;DHT22;53144;51.524;5.080;2023-04-02T01:30:06;6.87;94.59
66343;DHT22;53144;51.524;5.080;2023-04-02T01:32:32;6.88;94.49
66343;DHT22;53144;51.524;5.080;2023-04-02T01:34:58;6.95;94.65
66343;DHT22;53144;51.524;5.080;2023-04-02T01:37:49;6.97;94.53
66343;DHT22;53144;51.524;5.080;2023-04-02T01:45:35;6.90;94.16
66343;DHT22;53144;51.524;5.080;2023-04-02T01:48:05;6.92;94.09
66343;DHT22;53144;51.524;5.080;2023-04-02T01:50:36;6.85;93.73
66343;DHT22;53144;51.524;5.080;2023-04-02T01:53:13;6.84;93.35
66343;DHT22;53144;51.524;5.080;2023-04-02T01:55:45;6.84;93.49
66343;DHT22;53144;51.524;5.080;2023-04-02T01:58:16;6.80;94.05
66343;DHT22;53144;51.524;5.080;2023-04-02T02:00:48;6.84;94.22
66343;DHT22;53144;51.524;5.080;2023-04-02T02:03:15;6.76;94.20
66343;DHT22;53144;51.524;5.080;2023-04-02T02:05:41;6.76;94.51
66343;DHT22;53144;51.524;5.080;2023-04-02T02:08:26;6.73;94.41
66343;DHT22;53144;51.524;5.080;2023-04-02T02:10:53;6.64;94.10
66343;DHT22;53144;51.524;5.080;2023-04-02T02:13:19;6.63;94.50
66343;DHT22;53144;51.524;5.080;2023-04-02T02:15:46;6.60;94.53
66343;DHT22;53144;51.524;5.080;2023-04-02T02:18:12;6.54;94.19
66343;DHT22;53144;51.524;5.080;2023-04-02T02:20:38;6.52;94.57
66343;DHT22;53144;51.524;5.080;2023-04-02T02:23:04;6.49;93.94
66343;DHT22;53144;51.524;5.080;2023-04-02T02:25:30;6.40;94.02
66343;DHT22;53144;51.524;5.080;2023-04-02T02:28:09;6.44;93.89
66343;DHT22;53144;51.524;5.080;2023-04-02T02:30:45;6.46;94.40
66343;DHT22;53144;51.524;5.080;2023-04-02T02:33:24;6.52;94.46
66343;DHT22;53144;51.524;5.080;2023-04-02T02:38:49;6.57;94.48
66343;DHT22;53144;51.524;5.080;2023-04-02T02:46:27;6.50;93.89
66343;DHT22;53144;51.524;5.080;2023-04-02T02:48:54;6.47;93.53
66343;DHT22;53144;51.524;5.080;2023-04-02T02:51:26;6.52;93.98
66343;DHT22;53144;51.524;5.080;2023-04-02T02:53:56;6.46;94.03
66343;DHT22;53144;51.524;5.080;2023-04-02T02:56:23;6.44;94.14
66343;DHT22;53144;51.524;5.080;2023-04-02T02:58:51;6.43;93.96
66343;DHT22;53144;51.524;5.080;2023-04-02T03:01:17;6.44;93.46
66343;DHT22;53144;51.524;5.080;2023-04-02T03:03:44;6.46;93.74
66343;DHT22;53144;51.524;5.080;2023-04-02T03:06:14;6.42;93.59
66343;DHT22;53144;51.524;5.080;2023-04-02T03:08:44;6.49;93.31
66343;DHT22;53144;51.524;5.080;2023-04-02T03:11:31;6.40;93.08
66343;DHT22;53144;51.524;5.080;2023-04-02T03:14:16;6.37;93.59
66343;DHT22;53144;51.524;5.080;2023-04-02T03:16:46;6.36;93.24
66343;DHT22;53144;51.524;5.080;2023-04-02T03:19:28;6.29;93.54
66343;DHT22;53144;51.524;5.080;2023-04-02T03:22:10;6.32;93.68
66343;DHT22;53144;51.524;5.080;2023-04-02T03:27:27;6.42;93.42
66343;DHT22;53144;51.524;5.080;2023-04-02T03:33:04;6.37;93.50
66343;DHT22;53144;51.524;5.080;2023-04-02T03:35:37;6.32;93.48
66343;DHT22;53144;51.524;5.080;2023-04-02T03:38:35;6.28;93.42
66343;DHT22;53144;51.524;5.080;2023-04-02T03:41:26;6.22;93.54
66343;DHT22;53144;51.524;5.080;2023-04-02T03:43:59;6.18;93.41
66343;DHT22;53144;51.524;5.080;2023-04-02T03:46:43;6.13;93.68
66343;DHT22;53144;51.524;5.080;2023-04-02T03:49:17;6.18;93.47
66343;DHT22;53144;51.524;5.080;2023-04-02T03:52:09;6.18;93.39
66343;DHT22;53144;51.524;5.080;2023-04-02T03:54:36;6.09;93.77
66343;DHT22;53144;51.524;5.080;2023-04-02T03:57:02;6.16;93.57
66343;DHT22;53144;51.524;5.080;2023-04-02T03:59:45;6.21;93.79
66343;DHT22;53144;51.524;5.080;2023-04-02T04:04:41;6.13;93.37
66343;DHT22;53144;51.524;5.080;2023-04-02T04:07:17;5.95;92.95
66343;DHT22;53144;51.524;5.080;2023-04-02T04:09:45;6.01;93.01
66343;DHT22;53144;51.524;5.080;2023-04-02T04:14:54;6.08;93.10
66343;DHT22;53144;51.524;5.080;2023-04-02T04:17:33;6.06;93.51
66343;DHT22;53144;51.524;5.080;2023-04-02T04:20:21;6.04;92.96
66343;DHT22;53144;51.524;5.080;2023-04-02T04:22:49;6.04;92.99
66343;DHT22;53144;51.524;5.080;2023-04-02T04:25:29;5.99;93.14
66343;DHT22;53144;51.524;5.080;2023-04-02T04:31:12;5.98;93.42
66343;DHT22;53144;51.524;5.080;2023-04-02T04:33:45;5.98;93.15
66343;DHT22;53144;51.524;5.080;2023-04-02T04:36:23;5.82;93.05
66343;DHT22;53144;51.524;5.080;2023-04-02T04:38:56;5.91;93.58
66343;DHT22;53144;51.524;5.080;2023-04-02T04:41:28;5.68;92.89
66343;DHT22;53144;51.524;5.080;2023-04-02T04:44:03;5.71;92.77
66343;DHT22;53144;51.524;5.080;2023-04-02T04:46:36;5.73;92.76
66343;DHT22;53144;51.524;5.080;2023-04-02T04:49:22;5.74;92.99
66343;DHT22;53144;51.524;5.080;2023-04-02T04:51:51;5.77;92.80
66343;DHT22;53144;51.524;5.080;2023-04-02T04:54:19;5.79;92.63
66343;DHT22;53144;51.524;5.080;2023-04-02T04:56:47;5.75;92.45
66343;DHT22;53144;51.524;5.080;2023-04-02T04:59:23;5.77;92.68
66343;DHT22;53144;51.524;5.080;2023-04-02T05:02:04;5.75;92.73
66343;DHT22;53144;51.524;5.080;2023-04-02T05:04:41;5.68;92.22
66343;DHT22;53144;51.524;5.080;2023-04-02T05:07:11;5.67;92.66
66343;DHT22;53144;51.524;5.080;2023-04-02T05:09:46;5.65;92.42
66343;DHT22;53144;51.524;5.080;2023-04-02T05:12:55;5.67;92.73
66343;DHT22;53144;51.524;5.080;2023-04-02T05:18:25;5.61;92.93
66343;DHT22;53144;51.524;5.080;2023-04-02T05:26:41;5.67;92.34
66343;DHT22;53144;51.524;5.080;2023-04-02T05:34:13;5.63;92.64
66343;DHT22;53144;51.524;5.080;2023-04-02T05:36:45;5.70;92.39
66343;DHT22;53144;51.524;5.080;2023-04-02T05:39:15;5.61;92.42
66343;DHT22;53144;51.524;5.080;2023-04-02T05:41:44;5.60;92.46
66343;DHT22;53144;51.524;5.080;2023-04-02T05:44:18;5.65;92.72
66343;DHT22;53144;51.524;5.080;2023-04-02T05:46:55;5.64;92.75
66343;DHT22;53144;51.524;5.080;2023-04-02T05:52:10;5.57;93.12
66343;DHT22;53144;51.524;5.080;2023-04-02T05:54:45;5.54;92.59
66343;DHT22;53144;51.524;5.080;2023-04-02T05:57:17;5.44;92.27
66343;DHT22;53144;51.524;5.080;2023-04-02T05:59:59;5.54;92.59
66343;DHT22;53144;51.524;5.080;2023-04-02T06:02:36;5.44;92.22
66343;DHT22;53144;51.524;5.080;2023-04-02T06:05:04;5.48;92.79
66343;DHT22;53144;51.524;5.080;2023-04-02T06:07:42;5.46;92.23
66343;DHT22;53144;51.524;5.080;2023-04-02T06:10:22;5.39;92.17
66343;DHT22;53144;51.524;5.080;2023-04-02T06:12:58;5.47;92.11
66343;DHT22;53144;51.524;5.080;2023-04-02T06:15:28;5.44;92.25
66343;DHT22;53144;51.524;5.080;2023-04-02T06:20:27;5.44;91.96
66343;DHT22;53144;51.524;5.080;2023-04-02T06:23:32;5.44;91.53
66343;DHT22;53144;51.524;5.080;2023-04-02T06:26:17;5.44;92.16
66343;DHT22;53144;51.524;5.080;2023-04-02T06:28:54;5.32;91.52
66343;DHT22;53144;51.524;5.080;2023-04-02T06:31:38;5.20;91.66
66343;DHT22;53144;51.524;5.080;2023-04-02T06:34:06;5.34;91.27
66343;DHT22;53144;51.524;5.080;2023-04-02T06:36:40;5.30;90.25
66343;DHT22;53144;51.524;5.080;2023-04-02T06:39:13;5.27;90.40
66343;DHT22;53144;51.524;5.080;2023-04-02T06:41:40;5.24;91.13
66343;DHT22;53144;51.524;5.080;2023-04-02T06:44:12;5.24;90.03
66343;DHT22;53144;51.524;5.080;2023-04-02T06:46:50;5.20;89.52
66343;DHT22;53144;51.524;5.080;2023-04-02T06:51:53;5.08;89.33
66343;DHT22;53144;51.524;5.080;2023-04-02T06:54:20;5.03;89.25
66343;DHT22;53144;51.524;5.080;2023-04-02T06:56:48;5.03;89.26
66343;DHT22;53144;51.524;5.080;2023-04-02T06:59:14;5.05;89.34
66343;DHT22;53144;51.524;5.080;2023-04-02T07:02:12;5.12;89.02
66343;DHT22;53144;51.524;5.080;2023-04-02T07:04:39;5.12;88.92
66343;DHT22;53144;51.524;5.080;2023-04-02T07:07:13;5.12;88.90
66343;DHT22;53144;51.524;5.080;2023-04-02T07:09:42;5.16;89.01
66343;DHT22;53144;51.524;5.080;2023-04-02T07:12:12;5.11;88.73
66343;DHT22;53144;51.524;5.080;2023-04-02T07:14:37;5.09;88.65
66343;DHT22;53144;51.524;5.080;2023-04-02T07:17:03;5.19;88.71
66343;DHT22;53144;51.524;5.080;2023-04-02T07:19:28;5.19;88.28
66343;DHT22;53144;51.524;5.080;2023-04-02T07:21:53;5.18;88.15
66343;DHT22;53144;51.524;5.080;2023-04-02T07:24:19;5.13;88.21
66343;DHT22;53144;51.524;5.080;2023-04-02T07:26:44;4.95;87.56
66343;DHT22;53144;51.524;5.080;2023-04-02T07:29:15;4.95;87.76
66343;DHT22;53144;51.524;5.080;2023-04-02T07:31:41;4.89;87.69
66343;DHT22;53144;51.524;5.080;2023-04-02T07:34:07;4.95;87.55
66343;DHT22;53144;51.524;5.080;2023-04-02T07:36:33;4.97;87.75
66343;DHT22;53144;51.524;5.080;2023-04-02T07:38:58;4.85;88.07
66343;DHT22;53144;51.524;5.080;2023-04-02T07:41:24;5.03;88.05
66343;DHT22;53144;51.524;5.080;2023-04-02T07:43:50;5.11;87.64
66343;DHT22;53144;51.524;5.080;2023-04-02T07:46:16;5.13;86.50
66343;DHT22;53144;51.524;5.080;2023-04-02T07:48:43;5.23;86.31
66343;DHT22;53144;51.524;5.080;2023-04-02T07:51:20;5.23;86.95
66343;DHT22;53144;51.524;5.080;2023-04-02T07:53:46;5.27;85.67
66343;DHT22;53144;51.524;5.080;2023-04-02T07:56:19;5.09;84.75
66343;DHT22;53144;51.524;5.080;2023-04-02T07:58:45;4.95;84.67
66343;DHT22;53144;51.524;5.080;2023-04-02T08:01:18;5.05;85.33
66343;DHT22;53144;51.524;5.080;2023-04-02T08:03:43;5.00;84.91
66343;DHT22;53144;51.524;5.080;2023-04-02T08:06:09;4.75;84.97
66343;DHT22;53144;51.524;5.080;2023-04-02T08:08:34;4.93;85.23
66343;DHT22;53144;51.524;5.080;2023-04-02T08:11:00;4.95;85.08
66343;DHT22;53144;51.524;5.080;2023-04-02T08:13:25;5.12;85.46
66343;DHT22;53144;51.524;5.080;2023-04-02T08:15:51;5.08;85.09
66343;DHT22;53144;51.524;5.080;2023-04-02T08:18:16;4.95;84.19
66343;DHT22;53144;51.524;5.080;2023-04-02T08:20:41;5.02;84.98
66343;DHT22;53144;51.524;5.080;2023-04-02T08:23:14;5.12;85.89
66343;DHT22;53144;51.524;5.080;2023-04-02T08:25:41;5.13;84.80
66343;DHT22;53144;51.524;5.080;2023-04-02T08:28:07;5.32;85.46
66343;DHT22;53144;51.524;5.080;2023-04-02T08:30:32;5.15;84.31
66343;DHT22;53144;51.524;5.080;2023-04-02T08:32:58;5.30;84.13
66343;DHT22;53144;51.524;5.080;2023-04-02T08:35:23;5.11;83.56
66343;DHT22;53144;51.524;5.080;2023-04-02T08:37:48;5.19;84.34
66343;DHT22;53144;51.524;5.080;2023-04-02T08:40:26;5.30;84.78
66343;DHT22;53144;51.524;5.080;2023-04-02T08:46:07;5.48;84.48
66343;DHT22;53144;51.524;5.080;2023-04-02T08:48:37;5.24;84.55
66343;DHT22;53144;51.524;5.080;2023-04-02T08:51:04;5.03;83.97
66343;DHT22;53144;51.524;5.080;2023-04-02T08:53:33;5.39;85.20
66343;DHT22;53144;51.524;5.080;2023-04-02T08:58:53;5.51;84.71
66343;DHT22;53144;51.524;5.080;2023-04-02T09:01:38;5.44;83.98
66343;DHT22;53144;51.524;5.080;2023-04-02T09:04:14;5.22;83.69
66343;DHT22;53144;51.524;5.080;2023-04-02T09:06:41;5.26;84.02
66343;DHT22;53144;51.524;5.080;2023-04-02T09:09:08;5.24;83.97
66343;DHT22;53144;51.524;5.080;2023-04-02T09:11:58;5.26;83.58
66343;DHT22;53144;51.524;5.080;2023-04-02T09:17:29;5.24;84.14
66343;DHT22;53144;51.524;5.080;2023-04-02T09:22:31;5.18;83.98
66343;DHT22;53144;51.524;5.080;2023-04-02T09:25:02;5.08;84.16
66343;DHT22;53144;51.524;5.080;2023-04-02T09:27:34;5.02;83.38
66343;DHT22;53144;51.524;5.080;2023-04-02T09:32:58;5.19;84.40
66343;DHT22;53144;51.524;5.080;2023-04-02T09:35:28;5.06;84.64
66343;DHT22;53144;51.524;5.080;2023-04-02T09:40:39;5.03;84.59
66343;DHT22;53144;51.524;5.080;2023-04-02T09:43:18;4.99;84.16
66343;DHT22;53144;51.524;5.080;2023-04-02T09:46:05;5.20;84.15
66343;DHT22;53144;51.524;5.080;2023-04-02T09:48:35;5.36;84.90
66343;DHT22;53144;51.524;5.080;2023-04-02T09:51:23;5.43;84.03
66343;DHT22;53144;51.524;5.080;2023-04-02T09:56:18;5.51;83.45
66343;DHT22;53144;51.524;5.080;2023-04-02T09:58:45;5.46;83.23
66343;DHT22;53144;51.524;5.080;2023-04-02T10:01:36;5.82;83.59
66343;DHT22;53144;51.524;5.080;2023-04-02T10:04:04;5.65;83.15
66343;DHT22;53144;51.524;5.080;2023-04-02T10:06:32;5.82;83.17
66343;DHT22;53144;51.524;5.080;2023-04-02T10:09:26;5.79;81.90
66343;DHT22;53144;51.524;5.080;2023-04-02T10:11:54;5.79;82.98
66343;DHT22;53144;51.524;5.080;2023-04-02T10:14:30;5.60;83.11
66343;DHT22;53144;51.524;5.080;2023-04-02T10:17:11;5.57;82.97
66343;DHT22;53144;51.524;5.080;2023-04-02T10:19:54;5.63;83.61
66343;DHT22;53144;51.524;5.080;2023-04-02T10:22:21;5.57;83.18
66343;DHT22;53144;51.524;5.080;2023-04-02T10:24:47;5.79;84.14
66343;DHT22;53144;51.524;5.080;2023-04-02T10:30:14;5.90;82.84
66343;DHT22;53144;51.524;5.080;2023-04-02T10:32:56;5.84;83.04
66343;DHT22;53144;51.524;5.080;2023-04-02T10:40:59;6.05;81.61
66343;DHT22;53144;51.524;5.080;2023-04-02T10:46:10;6.16;81.51
66343;DHT22;53144;51.524;5.080;2023-04-02T10:51:06;5.79;81.59
66343;DHT22;53144;51.524;5.080;2023-04-02T10:56:33;5.94;82.43
66343;DHT22;53144;51.524;5.080;2023-04-02T10:59:05;5.82;81.57
66343;DHT22;53144;51.524;5.080;2023-04-02T11:01:38;5.92;82.18
66343;DHT22;53144;51.524;5.080;2023-04-02T11:04:16;5.99;82.69
66343;DHT22;53144;51.524;5.080;2023-04-02T11:06:48;5.97;82.01
66343;DHT22;53144;51.524;5.080;2023-04-02T11:09:20;5.97;81.73
66343;DHT22;53144;51.524;5.080;2023-04-02T11:11:50;5.92;81.99
66343;DHT22;53144;51.524;5.080;2023-04-02T11:14:29;5.74;82.26
66343;DHT22;53144;51.524;5.080;2023-04-02T11:16:56;5.46;81.93
66343;DHT22;53144;51.524;5.080;2023-04-02T11:19:31;5.60;82.81
66343;DHT22;53144;51.524;5.080;2023-04-02T11:24:43;5.90;82.76
66343;DHT22;53144;51.524;5.080;2023-04-02T11:27:33;5.99;81.45
66343;DHT22;53144;51.524;5.080;2023-04-02T11:32:41;6.18;81.12
66343;DHT22;53144;51.524;5.080;2023-04-02T11:37:56;6.04;81.47
66343;DHT22;53144;51.524;5.080;2023-04-02T11:48:41;5.97;81.49
66343;DHT22;53144;51.524;5.080;2023-04-02T11:53:55;6.30;81.30
66343;DHT22;53144;51.524;5.080;2023-04-02T12:09:53;6.42;79.98
66343;DHT22;53144;51.524;5.080;2023-04-02T12:12:31;6.66;79.68
66343;DHT22;53144;51.524;5.080;2023-04-02T12:14:57;6.30;78.79
66343;DHT22;53144;51.524;5.080;2023-04-02T12:17:27;6.71;79.29
66343;DHT22;53144;51.524;5.080;2023-04-02T12:19:57;6.95;78.81
66343;DHT22;53144;51.524;5.080;2023-04-02T12:22:33;6.81;78.65
66343;DHT22;53144;51.524;5.080;2023-04-02T12:27:46;6.88;77.84
66343;DHT22;53144;51.524;5.080;2023-04-02T12:30:18;7.09;78.73
66343;DHT22;53144;51.524;5.080;2023-04-02T12:32:43;7.00;77.00
66343;DHT22;53144;51.524;5.080;2023-04-02T12:35:29;6.66;78.01
66343;DHT22;53144;51.524;5.080;2023-04-02T12:37:56;6.83;78.81
66343;DHT22;53144;51.524;5.080;2023-04-02T12:40:22;6.85;78.29
66343;DHT22;53144;51.524;5.080;2023-04-02T12:42:48;6.85;77.60
66343;DHT22;53144;51.524;5.080;2023-04-02T12:45:40;6.92;77.95
66343;DHT22;53144;51.524;5.080;2023-04-02T12:48:05;7.16;77.53
66343;DHT22;53144;51.524;5.080;2023-04-02T12:50:32;7.67;74.36
66343;DHT22;53144;51.524;5.080;2023-04-02T12:52:57;8.05;74.03
66343;DHT22;53144;51.524;5.080;2023-04-02T12:55:25;8.63;73.03
66343;DHT22;53144;51.524;5.080;2023-04-02T12:57:58;8.59;70.36
66343;DHT22;53144;51.524;5.080;2023-04-02T13:02:50;10.44;66.99
66343;DHT22;53144;51.524;5.080;2023-04-02T13:05:37;11.05;63.46
66343;DHT22;53144;51.524;5.080;2023-04-02T13:08:12;11.69;64.05
66343;DHT22;53144;51.524;5.080;2023-04-02T13:10:39;11.85;63.13
66343;DHT22;53144;51.524;5.080;2023-04-02T13:13:04;10.64;64.45
66343;DHT22;53144;51.524;5.080;2023-04-02T13:15:32;10.33;66.13
66343;DHT22;53144;51.524;5.080;2023-04-02T13:20:40;11.23;65.72
66343;DHT22;53144;51.524;5.080;2023-04-02T13:25:54;10.65;65.39
66343;DHT22;53144;51.524;5.080;2023-04-02T13:28:20;10.63;67.64
66343;DHT22;53144;51.524;5.080;2023-04-02T13:30:46;9.65;66.53
66343;DHT22;53144;51.524;5.080;2023-04-02T13:33:12;9.55;68.56
66343;DHT22;53144;51.524;5.080;2023-04-02T13:35:38;9.28;70.01
66343;DHT22;53144;51.524;5.080;2023-04-02T13:38:03;8.93;70.49
66343;DHT22;53144;51.524;5.080;2023-04-02T13:40:31;8.73;71.02
66343;DHT22;53144;51.524;5.080;2023-04-02T13:42:57;9.82;69.98
66343;DHT22;53144;51.524;5.080;2023-04-02T13:45:26;9.90;68.87
66343;DHT22;53144;51.524;5.080;2023-04-02T13:47:53;9.69;68.79
66343;DHT22;53144;51.524;5.080;2023-04-02T13:50:21;10.50;67.39
66343;DHT22;53144;51.524;5.080;2023-04-02T13:52:50;10.26;67.13
66343;DHT22;53144;51.524;5.080;2023-04-02T13:55:18;10.17;67.55
66343;DHT22;53144;51.524;5.080;2023-04-02T13:57:45;9.85;66.73
66343;DHT22;53144;51.524;5.080;2023-04-02T14:00:10;10.81;65.04
66343;DHT22;53144;51.524;5.080;2023-04-02T14:02:40;10.82;65.60
66343;DHT22;53144;51.524;5.080;2023-04-02T14:05:35;10.85;64.54
66343;DHT22;53144;51.524;5.080;2023-04-02T14:08:31;11.39;63.17
66343;DHT22;53144;51.524;5.080;2023-04-02T14:14:14;11.09;63.20
66343;DHT22;53144;51.524;5.080;2023-04-02T14:16:50;11.18;61.67
66343;DHT22;53144;51.524;5.080;2023-04-02T14:22:49;11.39;61.57
66343;DHT22;53144;51.524;5.080;2023-04-02T14:39:07;10.57;62.74
66343;DHT22;53144;51.524;5.080;2023-04-02T14:44:12;10.23;63.83
66343;DHT22;53144;51.524;5.080;2023-04-02T14:46:38;10.23;64.13
66343;DHT22;53144;51.524;5.080;2023-04-02T14:49:23;10.17;63.49
66343;DHT22;53144;51.524;5.080;2023-04-02T14:52:04;9.89;64.38
66343;DHT22;53144;51.524;5.080;2023-04-02T14:59:36;9.98;64.80
66343;DHT22;53144;51.524;5.080;2023-04-02T15:02:11;10.03;65.30
66343;DHT22;53144;51.524;5.080;2023-04-02T15:04:53;9.77;62.09
66343;DHT22;53144;51.524;5.080;2023-04-02T15:07:29;9.68;63.18
66343;DHT22;53144;51.524;5.080;2023-04-02T15:12:52;9.78;63.11
66343;DHT22;53144;51.524;5.080;2023-04-02T15:17:52;10.13;63.54
66343;DHT22;53144;51.524;5.080;2023-04-02T15:20:18;10.29;64.46
66343;DHT22;53144;51.524;5.080;2023-04-02T15:22:59;10.23;63.80
66343;DHT22;53144;51.524;5.080;2023-04-02T15:25:38;9.99;61.92
66343;DHT22;53144;51.524;5.080;2023-04-02T15:28:19;10.26;63.49
66343;DHT22;53144;51.524;5.080;2023-04-02T15:30:47;10.14;64.04
66343;DHT22;53144;51.524;5.080;2023-04-02T15:36:17;10.17;62.17
66343;DHT22;53144;51.524;5.080;2023-04-02T15:38:54;10.12;62.59
66343;DHT22;53144;51.524;5.080;2023-04-02T15:41:26;10.09;61.63
66343;DHT22;53144;51.524;5.080;2023-04-02T15:47:10;10.13;60.94
66343;DHT22;53144;51.524;5.080;2023-04-02T15:52:27;10.54;64.48
66343;DHT22;53144;51.524;5.080;2023-04-02T15:55:21;10.75;61.90
66343;DHT22;53144;51.524;5.080;2023-04-02T15:57:55;10.75;59.19
66343;DHT22;53144;51.524;5.080;2023-04-02T16:00:30;10.60;60.86
66343;DHT22;53144;51.524;5.080;2023-04-02T16:03:19;10.40;59.88
66343;DHT22;53144;51.524;5.080;2023-04-02T16:10:53;10.36;60.73
66343;DHT22;53144;51.524;5.080;2023-04-02T16:13:29;10.21;60.76
66343;DHT22;53144;51.524;5.080;2023-04-02T16:16:03;10.24;61.92
66343;DHT22;53144;51.524;5.080;2023-04-02T16:21:27;10.09;61.29
66343;DHT22;53144;51.524;5.080;2023-04-02T16:23:53;9.79;61.89
66343;DHT22;53144;51.524;5.080;2023-04-02T16:29:32;9.68;62.89
66343;DHT22;53144;51.524;5.080;2023-04-02T16:34:58;9.81;63.40
66343;DHT22;53144;51.524;5.080;2023-04-02T16:37:39;9.88;63.55
66343;DHT22;53144;51.524;5.080;2023-04-02T16:40:15;9.81;61.97
66343;DHT22;53144;51.524;5.080;2023-04-02T16:45:28;9.67;62.11
66343;DHT22;53144;51.524;5.080;2023-04-02T16:48:21;9.75;62.54
66343;DHT22;53144;51.524;5.080;2023-04-02T16:56:26;9.48;62.56
66343;DHT22;53144;51.524;5.080;2023-04-02T17:01:58;9.45;63.54
66343;DHT22;53144;51.524;5.080;2023-04-02T17:12:46;9.06;64.75
66343;DHT22;53144;51.524;5.080;2023-04-02T17:15:26;9.00;65.55
66343;DHT22;53144;51.524;5.080;2023-04-02T17:17:55;8.97;65.27
66343;DHT22;53144;51.524;5.080;2023-04-02T17:20:23;8.91;66.31
66343;DHT22;53144;51.524;5.080;2023-04-02T17:22:50;8.81;66.71
66343;DHT22;53144;51.524;5.080;2023-04-02T17:25:26;8.90;65.74
66343;DHT22;53144;51.524;5.080;2023-04-02T17:27:54;8.83;65.59
66343;DHT22;53144;51.524;5.080;2023-04-02T17:30:42;8.76;66.46
66343;DHT22;53144;51.524;5.080;2023-04-02T17:33:13;8.70;66.54
66343;DHT22;53144;51.524;5.080;2023-04-02T17:36:07;8.69;67.26
66343;DHT22;53144;51.524;5.080;2023-04-02T17:47:11;8.35;67.90
66343;DHT22;53144;51.524;5.080;2023-04-02T17:49:55;8.37;66.90
66343;DHT22;53144;51.524;5.080;2023-04-02T17:52:40;8.30;67.43
66343;DHT22;53144;51.524;5.080;2023-04-02T18:01:33;8.14;68.84
66343;DHT22;53144;51.524;5.080;2023-04-02T18:06:38;7.89;70.87
66343;DHT22;53144;51.524;5.080;2023-04-02T18:20:01;7.83;72.08
66343;DHT22;53144;51.524;5.080;2023-04-02T18:22:45;7.69;71.60
66343;DHT22;53144;51.524;5.080;2023-04-02T18:25:41;7.60;73.01
66343;DHT22;53144;51.524;5.080;2023-04-02T18:33:42;7.46;74.53
66343;DHT22;53144;51.524;5.080;2023-04-02T18:36:18;7.32;75.71
66343;DHT22;53144;51.524;5.080;2023-04-02T18:39:09;7.25;75.90
66343;DHT22;53144;51.524;5.080;2023-04-02T18:41:44;7.08;77.46
66343;DHT22;53144;51.524;5.080;2023-04-02T18:44:26;6.92;77.41
66343;DHT22;53144;51.524;5.080;2023-04-02T18:47:20;6.73;78.68
66343;DHT22;53144;51.524;5.080;2023-04-02T18:49:48;6.62;77.95
66343;DHT22;53144;51.524;5.080;2023-04-02T18:52:17;6.56;78.50
66343;DHT22;53144;51.524;5.080;2023-04-02T18:54:47;6.47;79.14
66343;DHT22;53144;51.524;5.080;2023-04-02T18:57:21;6.42;79.00
66343;DHT22;53144;51.524;5.080;2023-04-02T18:59:55;6.36;78.14
66343;DHT22;53144;51.524;5.080;2023-04-02T19:05:04;6.23;78.42
66343;DHT22;53144;51.524;5.080;2023-04-02T19:07:35;6.15;78.26
66343;DHT22;53144;51.524;5.080;2023-04-02T19:10:26;6.15;78.10
66343;DHT22;53144;51.524;5.080;2023-04-02T19:12:53;6.09;78.52
66343;DHT22;53144;51.524;5.080;2023-04-02T19:15:18;6.02;79.31
66343;DHT22;53144;51.524;5.080;2023-04-02T19:21:34;5.85;79.31
66343;DHT22;53144;51.524;5.080;2023-04-02T19:26:48;5.71;80.66
66343;DHT22;53144;51.524;5.080;2023-04-02T19:34:51;5.40;81.94
66343;DHT22;53144;51.524;5.080;2023-04-02T19:40:28;5.26;81.75
66343;DHT22;53144;51.524;5.080;2023-04-02T19:42:55;5.24;82.04
66343;DHT22;53144;51.524;5.080;2023-04-02T19:45:26;5.15;82.29
66343;DHT22;53144;51.524;5.080;2023-04-02T19:47:53;4.99;82.43
66343;DHT22;53144;51.524;5.080;2023-04-02T19:50:19;4.96;82.20
66343;DHT22;53144;51.524;5.080;2023-04-02T19:52:44;4.85;82.22
66343;DHT22;53144;51.524;5.080;2023-04-02T19:55:10;4.85;82.36
66343;DHT22;53144;51.524;5.080;2023-04-02T19:57:35;4.76;81.99
66343;DHT22;53144;51.524;5.080;2023-04-02T20:00:01;4.72;81.18
66343;DHT22;53144;51.524;5.080;2023-04-02T20:02:26;4.67;82.10
66343;DHT22;53144;51.524;5.080;2023-04-02T20:04:52;4.61;82.18
66343;DHT22;53144;51.524;5.080;2023-04-02T20:07:17;4.50;83.55
66343;DHT22;53144;51.524;5.080;2023-04-02T20:09:42;4.47;83.61
66343;DHT22;53144;51.524;5.080;2023-04-02T20:12:08;4.47;83.43
66343;DHT22;53144;51.524;5.080;2023-04-02T20:14:33;4.48;83.43
66343;DHT22;53144;51.524;5.080;2023-04-02T20:16:59;4.48;83.42
66343;DHT22;53144;51.524;5.080;2023-04-02T20:19:24;4.44;83.97
66343;DHT22;53144;51.524;5.080;2023-04-02T20:21:50;4.45;84.16
66343;DHT22;53144;51.524;5.080;2023-04-02T20:24:15;4.37;85.20
66343;DHT22;53144;51.524;5.080;2023-04-02T20:26:41;4.32;85.15
66343;DHT22;53144;51.524;5.080;2023-04-02T20:29:06;4.27;85.73
66343;DHT22;53144;51.524;5.080;2023-04-02T20:31:32;4.29;86.06
66343;DHT22;53144;51.524;5.080;2023-04-02T20:33:58;4.30;86.45
66343;DHT22;53144;51.524;5.080;2023-04-02T20:36:24;4.27;87.05
66343;DHT22;53144;51.524;5.080;2023-04-02T20:38:50;4.02;87.64
66343;DHT22;53144;51.524;5.080;2023-04-02T20:41:16;3.85;88.19
66343;DHT22;53144;51.524;5.080;2023-04-02T20:43:42;3.76;88.69
66343;DHT22;53144;51.524;5.080;2023-04-02T20:46:09;3.69;88.57
66343;DHT22;53144;51.524;5.080;2023-04-02T20:48:35;3.68;88.63
66343;DHT22;53144;51.524;5.080;2023-04-02T20:51:03;3.59;88.84